Time;durP1;ratioP1;P1;durP2;ratioP2;P2;SDS_P1;SDS_P2;PMS_P1;PMS_P2;Temp;Humidity;BMP_temperature;BMP_pressure;BME280_temperature;BME280_humidity;BME280_pressure;Samples;Min_cycle;Max_cycle;Signal;HPM_P1;HPM_P2
2022/05/03 00:02:07;;;;;;;9.60;3.30;;;13.60;50.40;;;;;;5089193;28;20214;-33
2022/05/03 00:04:48;;;;;;;3.30;2.40;;;13.50;50.60;;;;;;5082820;28;20205;-33
2022/05/03 00:07:24;;;;;;;5.73;2.63;;;13.60;50.70;;;;;;5089493;28;20200;-32
2022/05/03 00:10:01;;;;;;;3.27;2.30;;;13.50;50.80;;;;;;5089588;28;20191;-32
2022/05/03 00:12:32;;;;;;;3.07;2.30;;;13.50;50.90;;;;;;5088430;28;20190;-33
2022/05/03 00:15:02;;;;;;;2.40;2.03;;;13.40;50.90;;;;;;5099407;28;20210;-33
2022/05/03 00:17:30;;;;;;;3.73;2.53;;;13.40;50.90;;;;;;5083845;28;20194;-32
2022/05/03 00:19:59;;;;;;;3.63;2.47;;;13.40;51.20;;;;;;5085231;28;20552;-33
2022/05/03 00:22:28;;;;;;;2.43;2.00;;;13.40;51.30;;;;;;5090734;28;20205;-32
2022/05/03 00:24:55;;;;;;;3.60;2.10;;;13.40;51.30;;;;;;5089149;28;20221;-33
2022/05/03 00:27:25;;;;;;;2.10;1.90;;;13.40;51.40;;;;;;5088419;28;20199;-33
2022/05/03 00:29:52;;;;;;;1.77;1.60;;;13.40;51.40;;;;;;5081079;28;20210;-33
2022/05/03 00:32:22;;;;;;;2.20;2.00;;;13.40;52.00;;;;;;5088784;28;20589;-33
2022/05/03 00:34:50;;;;;;;2.53;2.13;;;13.50;51.60;;;;;;5086867;28;20282;-33
2022/05/03 00:37:17;;;;;;;3.83;2.40;;;13.40;51.60;;;;;;5090152;28;20216;-33
2022/05/03 00:39:46;;;;;;;3.00;2.03;;;13.50;51.90;;;;;;5089648;28;20203;-33
2022/05/03 00:42:19;;;;;;;1.90;1.80;;;13.40;51.90;;;;;;5090188;28;20187;-33
2022/05/03 00:44:59;;;;;;;3.40;2.00;;;13.40;52.00;;;;;;5088331;28;20744;-32
2022/05/03 00:47:45;;;;;;;4.47;3.00;;;13.30;52.10;;;;;;5083766;28;20218;-33
2022/05/03 00:50:21;;;;;;;4.60;2.67;;;13.30;52.30;;;;;;5087279;28;20218;-33
2022/05/03 00:52:54;;;;;;;5.13;2.93;;;13.20;52.50;;;;;;5085137;28;20184;-33
2022/05/03 00:55:44;;;;;;;5.37;3.20;;;13.20;52.70;;;;;;5085127;28;20183;-33
2022/05/03 00:58:27;;;;;;;7.77;3.10;;;13.20;53.00;;;;;;5084298;28;20236;-33
2022/05/03 01:01:02;;;;;;;2.83;2.50;;;13.20;53.10;;;;;;5090197;28;20240;-32
2022/05/03 01:03:39;;;;;;;3.30;2.83;;;13.20;53.10;;;;;;5090072;28;20272;-32
2022/05/03 01:06:20;;;;;;;3.17;2.43;;;13.20;53.10;;;;;;5088097;28;20195;-33
2022/05/03 01:09:00;;;;;;;2.30;2.10;;;13.20;53.30;;;;;;5089049;28;20276;-33
2022/05/03 01:11:42;;;;;;;2.90;2.10;;;13.10;53.30;;;;;;5082929;28;20200;-33
2022/05/03 01:14:25;;;;;;;2.20;1.93;;;13.10;53.30;;;;;;5089528;28;20682;-44
2022/05/03 01:16:59;;;;;;;2.43;2.10;;;13.10;53.50;;;;;;5085300;28;20780;-32
2022/05/03 01:19:38;;;;;;;2.60;2.40;;;13.10;53.70;;;;;;5085537;28;20201;-33
2022/05/03 01:22:10;;;;;;;2.13;1.87;;;13.00;53.70;;;;;;5083049;28;20270;-33
2022/05/03 01:25:08;;;;;;;4.27;2.40;;;13.00;53.70;;;;;;5088305;28;20199;-33
2022/05/03 01:27:52;;;;;;;3.37;2.20;;;13.00;53.80;;;;;;5080666;28;20233;-34
2022/05/03 01:30:22;;;;;;;2.07;1.87;;;13.00;54.00;;;;;;5088840;28;20192;-33
2022/05/03 01:32:53;;;;;;;2.00;1.80;;;13.00;53.90;;;;;;5083398;28;20189;-33
2022/05/03 01:35:26;;;;;;;2.73;2.00;;;13.00;54.00;;;;;;5078440;28;20213;-34
2022/05/03 01:38:06;;;;;;;1.70;1.50;;;13.00;54.00;;;;;;5089579;28;20206;-33
2022/05/03 01:40:45;;;;;;;3.60;2.20;;;13.00;53.90;;;;;;5079548;28;20725;-33
2022/05/03 01:43:14;;;;;;;2.80;2.07;;;13.00;54.00;;;;;;5088942;28;20208;-33
2022/05/03 01:45:59;;;;;;;2.50;2.30;;;13.00;54.20;;;;;;5093285;28;20204;-33
2022/05/03 01:51:26;;;;;;;2.33;2.10;;;13.00;54.40;;;;;;5085412;28;20207;-33
2022/05/03 01:54:03;;;;;;;3.23;2.53;;;12.90;54.60;;;;;;5089147;28;20203;-34
2022/05/03 01:56:42;;;;;;;1.67;1.57;;;12.90;54.70;;;;;;5087563;28;20229;-34
2022/05/03 01:59:32;;;;;;;2.80;1.80;;;12.90;55.30;;;;;;5088052;28;20276;-34
2022/05/03 02:02:10;;;;;;;2.30;1.80;;;12.90;55.30;;;;;;5089528;28;20229;-33
2022/05/03 02:05:00;;;;;;;2.03;1.80;;;12.90;54.70;;;;;;5096544;28;20315;-34
2022/05/03 02:07:56;;;;;;;2.90;1.37;;;12.90;54.90;;;;;;5083918;28;20201;-33
2022/05/03 02:10:42;;;;;;;1.80;1.70;;;12.90;54.80;;;;;;5079351;28;20569;-34
2022/05/03 02:13:28;;;;;;;3.23;2.27;;;12.80;54.90;;;;;;5082541;28;20190;-33
2022/05/03 02:16:05;;;;;;;2.60;2.10;;;12.90;55.10;;;;;;5084586;28;20283;-34
2022/05/03 02:18:46;;;;;;;2.23;2.03;;;12.90;55.30;;;;;;5086009;28;20189;-33
2022/05/03 02:21:18;;;;;;;3.53;2.43;;;12.90;55.30;;;;;;5082808;28;20191;-32
2022/05/03 02:24:02;;;;;;;1.67;1.50;;;12.90;55.40;;;;;;5092266;28;20197;-33
2022/05/03 02:26:40;;;;;;;4.03;2.23;;;12.80;55.40;;;;;;5086952;28;20275;-33
2022/05/03 02:29:11;;;;;;;2.30;1.83;;;12.80;55.60;;;;;;5092495;28;20192;-33
2022/05/03 02:31:48;;;;;;;2.70;2.10;;;12.80;55.60;;;;;;5084899;28;20200;-33
2022/05/03 02:34:29;;;;;;;2.67;1.93;;;12.80;55.70;;;;;;5091232;28;20258;-33
2022/05/03 02:37:01;;;;;;;2.43;1.87;;;12.70;55.70;;;;;;5089270;28;20217;-34
2022/05/03 02:39:32;;;;;;;4.17;2.20;;;12.70;55.90;;;;;;5092169;28;20275;-33
2022/05/03 02:42:03;;;;;;;2.40;1.87;;;12.70;56.00;;;;;;5107953;28;20212;-33
2022/05/03 02:44:34;;;;;;;1.60;1.40;;;12.70;56.00;;;;;;5092252;28;20573;-33
2022/05/03 02:47:05;;;;;;;3.10;2.30;;;12.70;56.10;;;;;;5092329;28;20192;-35
2022/05/03 02:49:57;;;;;;;2.47;1.90;;;12.60;56.30;;;;;;5090513;28;20710;-33
2022/05/03 02:52:29;;;;;;;2.40;1.80;;;12.60;56.40;;;;;;5090889;28;20196;-33
2022/05/03 02:55:06;;;;;;;2.40;2.20;;;12.60;56.40;;;;;;5088050;28;20269;-34
2022/05/03 02:57:45;;;;;;;2.30;2.10;;;12.60;56.70;;;;;;5100324;28;20676;-33
2022/05/03 03:03:22;;;;;;;1.90;1.70;;;12.50;56.70;;;;;;5091424;28;20203;-34
2022/05/03 03:05:58;;;;;;;1.47;1.37;;;12.50;56.70;;;;;;5086617;28;20212;-33
2022/05/03 03:08:28;;;;;;;2.03;1.80;;;12.50;56.80;;;;;;5091648;28;20268;-34
2022/05/03 03:11:02;;;;;;;2.53;2.00;;;12.50;57.00;;;;;;5089904;28;20201;-34
2022/05/03 03:13:45;;;;;;;1.70;1.60;;;12.50;57.10;;;;;;5084247;28;20254;-35
2022/05/03 03:16:14;;;;;;;3.33;2.30;;;12.50;57.20;;;;;;5084864;28;20240;-34
2022/05/03 03:18:44;;;;;;;2.67;2.47;;;12.40;57.50;;;;;;5089003;28;20224;-33
2022/05/03 03:21:14;;;;;;;2.63;2.20;;;12.40;57.70;;;;;;5088684;28;20281;-33
2022/05/03 03:23:42;;;;;;;5.87;2.50;;;12.40;57.80;;;;;;5105381;28;20291;-34
2022/05/03 03:26:11;;;;;;;3.17;2.13;;;12.40;57.80;;;;;;5105666;28;20319;-33
2022/05/03 03:28:38;;;;;;;2.10;2.00;;;12.40;57.90;;;;;;5090532;28;20206;-32
2022/05/03 03:31:08;;;;;;;2.90;2.57;;;12.40;58.00;;;;;;5075341;28;20273;-33
2022/05/03 03:33:39;;;;;;;3.00;2.60;;;12.40;58.10;;;;;;5083297;28;20255;-32
2022/05/03 03:36:08;;;;;;;2.27;2.10;;;12.40;58.40;;;;;;5085097;28;20209;-33
2022/05/03 03:38:44;;;;;;;3.23;2.40;;;12.40;58.40;;;;;;5081717;28;20200;-34
2022/05/03 03:41:12;;;;;;;2.07;1.90;;;12.40;58.40;;;;;;5086699;28;20196;-34
2022/05/03 03:43:40;;;;;;;3.73;1.80;;;12.40;58.30;;;;;;5088764;28;20192;-34
2022/05/03 03:46:07;;;;;;;2.30;2.10;;;12.40;58.40;;;;;;5089548;28;20306;-33
2022/05/03 03:48:35;;;;;;;2.27;2.07;;;12.40;58.50;;;;;;5090074;28;20196;-33
2022/05/03 03:51:03;;;;;;;3.53;2.40;;;12.40;58.50;;;;;;5087009;28;20206;-34
2022/05/03 03:53:31;;;;;;;2.97;2.47;;;12.40;58.60;;;;;;5089247;28;20210;-33
2022/05/03 03:56:01;;;;;;;2.50;2.17;;;12.40;58.90;;;;;;5090408;28;20266;-33
2022/05/03 03:58:28;;;;;;;2.30;2.10;;;12.40;58.90;;;;;;5090029;28;20235;-33
2022/05/03 04:00:56;;;;;;;2.50;2.30;;;12.40;58.90;;;;;;5090913;28;20224;-33
2022/05/03 04:03:24;;;;;;;2.37;1.93;;;12.40;59.00;;;;;;5090564;28;20240;-33
2022/05/03 04:05:51;;;;;;;2.37;2.20;;;12.40;58.90;;;;;;5088780;28;20528;-33
2022/05/03 04:08:18;;;;;;;3.17;2.43;;;12.40;59.00;;;;;;5075236;28;20209;-34
2022/05/03 04:10:46;;;;;;;3.27;2.20;;;12.40;59.10;;;;;;5090547;28;20704;-33
2022/05/03 04:13:14;;;;;;;3.50;2.47;;;12.40;59.20;;;;;;5090118;28;20231;-32
2022/05/03 04:15:42;;;;;;;3.80;2.43;;;12.40;59.10;;;;;;5090318;28;20298;-32
2022/05/03 04:18:09;;;;;;;2.23;1.93;;;12.50;59.30;;;;;;5090354;28;20295;-33
2022/05/03 04:20:36;;;;;;;2.53;2.07;;;12.50;59.30;;;;;;5088609;28;20196;-33
2022/05/03 04:23:03;;;;;;;2.07;1.97;;;12.50;59.40;;;;;;5090334;28;20195;-33
2022/05/03 04:25:31;;;;;;;3.53;2.10;;;12.50;59.40;;;;;;5089658;28;20204;-32
2022/05/03 04:27:58;;;;;;;2.33;1.80;;;12.50;59.40;;;;;;5087827;28;20191;-33
2022/05/03 04:30:27;;;;;;;3.00;2.30;;;12.60;59.40;;;;;;5077743;28;20197;-33
2022/05/03 04:32:54;;;;;;;3.70;2.17;;;12.60;59.40;;;;;;5088635;28;20193;-32
2022/05/03 04:35:21;;;;;;;2.97;1.87;;;12.60;59.50;;;;;;5088593;28;20201;-34
2022/05/03 04:37:48;;;;;;;1.90;1.77;;;12.50;59.40;;;;;;5089921;28;20304;-34
2022/05/03 04:40:16;;;;;;;2.67;1.93;;;12.50;59.40;;;;;;5089675;28;20188;-32
2022/05/03 04:42:43;;;;;;;2.90;1.90;;;12.60;59.50;;;;;;5087908;28;20205;-34
2022/05/03 04:45:11;;;;;;;5.07;2.00;;;12.60;59.50;;;;;;5089754;28;20654;-33
2022/05/03 04:47:39;;;;;;;3.53;2.27;;;12.60;59.60;;;;;;5087214;28;20715;-33
2022/05/03 04:50:08;;;;;;;4.33;2.40;;;12.60;59.60;;;;;;5082657;28;20192;-33
2022/05/03 04:52:35;;;;;;;1.70;1.60;;;12.70;59.70;;;;;;5087757;28;20192;-33
2022/05/03 04:55:03;;;;;;;2.10;1.80;;;12.70;59.60;;;;;;5089118;28;20192;-35
2022/05/03 04:57:30;;;;;;;2.60;2.07;;;12.70;59.50;;;;;;5088316;28;20232;-33
2022/05/03 04:59:57;;;;;;;3.63;2.37;;;12.80;59.70;;;;;;5089190;28;20199;-33
2022/05/03 05:02:24;;;;;;;2.67;1.83;;;12.80;59.60;;;;;;5090452;28;20199;-32
2022/05/03 05:04:53;;;;;;;1.90;1.80;;;12.90;59.60;;;;;;5077765;28;20215;-32
2022/05/03 05:07:20;;;;;;;1.90;1.70;;;12.90;59.60;;;;;;5105862;28;20253;-33
2022/05/03 05:12:30;;;;;;;4.13;2.40;;;13.00;59.60;;;;;;5089567;28;20204;-32
2022/05/03 05:14:57;;;;;;;2.97;2.17;;;13.10;60.00;;;;;;5089862;28;20203;-32
2022/05/03 05:17:24;;;;;;;2.30;2.00;;;13.10;59.90;;;;;;5097774;28;20692;-32
2022/05/03 05:19:53;;;;;;;2.30;1.63;;;13.20;60.00;;;;;;5086400;28;20201;-32
2022/05/03 05:22:20;;;;;;;1.80;1.70;;;13.20;59.90;;;;;;5086161;28;20321;-32
2022/05/03 05:24:47;;;;;;;2.73;2.40;;;13.20;60.00;;;;;;5081342;28;20688;-32
2022/05/03 05:27:14;;;;;;;2.37;2.03;;;13.20;60.20;;;;;;5087850;28;20595;-34
2022/05/03 05:29:41;;;;;;;2.30;2.00;;;13.30;60.30;;;;;;5084738;28;20282;-33
2022/05/03 05:32:09;;;;;;;3.17;2.17;;;13.30;60.30;;;;;;5084085;28;20193;-34
2022/05/03 05:34:36;;;;;;;2.60;2.40;;;13.40;60.40;;;;;;5084248;28;20271;-33
2022/05/03 05:37:05;;;;;;;4.37;2.30;;;13.40;60.50;;;;;;5089661;28;20234;-33
2022/05/03 05:39:32;;;;;;;2.23;2.03;;;13.50;60.70;;;;;;5087492;28;20263;-34
2022/05/03 05:42:01;;;;;;;3.10;2.17;;;13.50;60.60;;;;;;5085415;28;20190;-32
2022/05/03 05:44:28;;;;;;;3.30;2.00;;;13.60;60.60;;;;;;5087818;28;20224;-33
2022/05/03 05:46:57;;;;;;;2.70;1.80;;;13.60;60.70;;;;;;5104877;28;20760;-32
2022/05/03 05:49:24;;;;;;;2.53;2.27;;;13.60;60.80;;;;;;5087146;28;20205;-32
2022/05/03 05:53:31;;;;;;;3.77;2.30;;;13.70;61.20;;;;;;5089719;28;20294;-32
2022/05/03 05:54:39;;;;;;;2.20;2.10;;;13.70;61.40;;;;;;5090448;28;20219;-33
2022/05/03 05:57:06;;;;;;;2.17;1.70;;;13.80;61.40;;;;;;5092770;28;20229;-33
2022/05/03 05:59:33;;;;;;;3.33;2.00;;;13.80;61.40;;;;;;5090095;28;20198;-32
2022/05/03 06:02:00;;;;;;;2.77;1.90;;;13.80;61.40;;;;;;5091952;28;20192;-33
2022/05/03 06:04:28;;;;;;;2.30;2.10;;;13.90;61.70;;;;;;5091439;28;20304;-34
2022/05/03 06:06:55;;;;;;;1.63;1.53;;;13.90;61.90;;;;;;5092297;28;20212;-33
2022/05/03 06:09:22;;;;;;;1.80;1.70;;;13.90;62.00;;;;;;5092707;28;20614;-32
2022/05/03 06:11:51;;;;;;;1.60;1.50;;;14.00;62.10;;;;;;5092798;28;20217;-32
2022/05/03 06:14:18;;;;;;;2.80;1.90;;;14.00;62.10;;;;;;5092596;28;20192;-33
2022/05/03 06:16:49;;;;;;;1.77;1.67;;;14.10;62.20;;;;;;5089884;28;20190;-32
2022/05/03 06:19:16;;;;;;;1.47;1.37;;;14.10;62.30;;;;;;5087736;28;20208;-33
2022/05/03 06:21:43;;;;;;;2.30;1.80;;;14.10;62.20;;;;;;5084358;28;20198;-34
2022/05/03 06:24:11;;;;;;;1.70;1.60;;;14.20;62.40;;;;;;5093934;28;20233;-32
2022/05/03 06:26:38;;;;;;;1.60;1.50;;;14.20;62.40;;;;;;5101216;28;20297;-34
2022/05/03 06:29:09;;;;;;;2.23;1.53;;;14.20;62.30;;;;;;5088516;28;20200;-32
2022/05/03 06:31:36;;;;;;;1.70;1.60;;;14.30;62.50;;;;;;5076595;28;20260;-32
2022/05/03 06:34:04;;;;;;;1.60;1.50;;;14.30;62.50;;;;;;5085410;28;20280;-33
2022/05/03 06:36:31;;;;;;;1.93;1.73;;;14.40;62.50;;;;;;5091393;28;20653;-33
2022/05/03 06:38:59;;;;;;;1.90;1.80;;;14.40;62.50;;;;;;5088944;28;20599;-33
2022/05/03 06:41:26;;;;;;;1.57;1.40;;;14.40;62.70;;;;;;5090847;28;20219;-34
2022/05/03 06:43:56;;;;;;;1.10;1.10;;;14.40;62.60;;;;;;5091527;28;21419;-34
2022/05/03 06:46:25;;;;;;;1.47;1.37;;;14.40;62.70;;;;;;5089948;28;20207;-33
2022/05/03 06:48:52;;;;;;;1.60;1.50;;;14.40;62.70;;;;;;5091723;28;20678;-33
2022/05/03 06:51:19;;;;;;;1.80;1.70;;;14.40;62.90;;;;;;5089496;28;20194;-33
2022/05/03 06:53:47;;;;;;;3.73;2.43;;;14.40;63.00;;;;;;5089424;28;20282;-33
2022/05/03 06:56:15;;;;;;;3.50;2.93;;;14.50;63.30;;;;;;5092038;28;20300;-34
2022/05/03 06:58:42;;;;;;;2.63;2.40;;;14.50;63.70;;;;;;5105118;28;20234;-33
2022/05/03 07:01:10;;;;;;;2.63;2.43;;;14.50;63.70;;;;;;5082626;28;20202;-33
2022/05/03 07:03:39;;;;;;;1.80;1.70;;;14.50;63.80;;;;;;5080088;28;20294;-34
2022/05/03 07:06:07;;;;;;;1.90;1.80;;;14.50;63.80;;;;;;5084086;28;20204;-34
2022/05/03 07:08:36;;;;;;;2.67;2.20;;;14.50;63.90;;;;;;5089637;28;20553;-34
2022/05/03 07:11:03;;;;;;;2.10;1.97;;;14.50;64.00;;;;;;5090425;28;20699;-33
2022/05/03 07:13:30;;;;;;;2.17;1.67;;;14.60;64.20;;;;;;5090739;28;20195;-32
2022/05/03 07:15:59;;;;;;;2.20;1.40;;;14.70;64.20;;;;;;5091879;28;20225;-32
2022/05/03 07:24:12;;;;;;;1.37;1.30;;;14.80;64.10;;;;;;5047315;28;20277;-33
2022/05/03 07:26:39;;;;;;;1.63;1.53;;;14.90;64.00;;;;;;5049329;28;20207;-33
2022/05/03 07:29:07;;;;;;;2.43;1.60;;;15.00;63.90;;;;;;5054269;28;20200;-33
2022/05/03 07:31:34;;;;;;;2.17;1.93;;;15.10;64.00;;;;;;5090616;28;20245;-33
2022/05/03 07:34:01;;;;;;;2.97;2.27;;;15.20;64.10;;;;;;5084389;28;20208;-32
2022/05/03 07:36:30;;;;;;;2.33;2.03;;;15.30;64.30;;;;;;5090864;28;20199;-33
2022/05/03 07:38:57;;;;;;;2.27;1.90;;;15.40;64.30;;;;;;5081803;28;20207;-33
2022/05/03 07:41:25;;;;;;;2.30;2.00;;;15.50;64.30;;;;;;5085783;28;20213;-34
2022/05/03 07:43:52;;;;;;;2.07;1.87;;;15.60;64.40;;;;;;5083655;28;20204;-34
2022/05/03 07:46:20;;;;;;;2.70;2.20;;;15.60;64.30;;;;;;5076038;28;20214;-34
2022/05/03 07:48:47;;;;;;;1.90;1.80;;;15.70;64.40;;;;;;5090007;28;20195;-33
2022/05/03 07:51:14;;;;;;;2.50;1.70;;;15.80;64.60;;;;;;5086296;28;20188;-34
2022/05/03 07:53:43;;;;;;;2.00;1.80;;;15.80;64.70;;;;;;5083646;28;20306;-34
2022/05/03 07:56:10;;;;;;;1.50;1.40;;;15.90;64.70;;;;;;5086184;28;20339;-34
2022/05/03 07:58:38;;;;;;;2.40;1.60;;;15.90;64.80;;;;;;5087329;28;20231;-34
2022/05/03 08:01:06;;;;;;;1.73;1.63;;;15.90;64.70;;;;;;5086137;28;20203;-34
2022/05/03 08:03:33;;;;;;;2.60;2.10;;;16.00;64.80;;;;;;5087227;28;20221;-33
2022/05/03 08:06:02;;;;;;;2.07;1.97;;;16.00;64.90;;;;;;5085147;28;20210;-34
2022/05/03 08:08:29;;;;;;;2.40;2.20;;;16.00;65.00;;;;;;5086069;28;20219;-33
2022/05/03 08:10:58;;;;;;;2.00;1.90;;;16.10;65.80;;;;;;5096738;28;20217;-34
2022/05/03 08:13:25;;;;;;;1.93;1.83;;;16.10;65.00;;;;;;5082619;28;20652;-35
2022/05/03 08:15:52;;;;;;;1.57;1.47;;;16.10;65.00;;;;;;5084144;28;20197;-35
2022/05/03 08:18:19;;;;;;;1.60;1.50;;;16.20;64.90;;;;;;5078956;28;20322;-35
2022/05/03 08:20:47;;;;;;;2.47;2.27;;;16.30;64.90;;;;;;5085732;28;20558;-34
2022/05/03 08:23:14;;;;;;;2.73;2.53;;;16.40;65.10;;;;;;5088885;28;20201;-33
2022/05/03 08:25:41;;;;;;;2.33;2.13;;;16.50;65.10;;;;;;5089469;28;20204;-34
2022/05/03 08:28:10;;;;;;;2.77;2.57;;;16.50;64.90;;;;;;5085961;28;20189;-34
2022/05/03 08:30:37;;;;;;;2.07;1.97;;;16.50;64.80;;;;;;5077732;28;20288;-33
2022/05/03 08:33:04;;;;;;;1.87;1.63;;;16.50;64.70;;;;;;5089674;28;20215;-33
2022/05/03 08:35:31;;;;;;;2.20;2.00;;;16.50;64.60;;;;;;5088081;28;20197;-33
2022/05/03 08:43:30;;;;;;;2.13;2.00;;;16.40;64.60;;;;;;5080028;28;20557;-37
2022/05/03 08:46:01;;;;;;;2.20;1.60;;;16.40;64.70;;;;;;5083598;28;20193;-33
2022/05/03 08:48:34;;;;;;;1.70;1.60;;;16.40;64.90;;;;;;5078767;28;20180;-34
2022/05/03 08:51:02;;;;;;;1.53;1.43;;;16.40;65.10;;;;;;5082049;28;20192;-34
2022/05/03 08:53:30;;;;;;;1.53;1.43;;;16.30;65.20;;;;;;5082517;28;20871;-34
2022/05/03 08:55:58;;;;;;;1.77;1.67;;;16.30;65.40;;;;;;5082760;28;20279;-34
2022/05/03 08:58:25;;;;;;;1.90;1.47;;;16.30;65.60;;;;;;5090471;28;20204;-34
2022/05/03 09:00:54;;;;;;;1.67;1.57;;;16.20;65.70;;;;;;5082207;28;20283;-34
2022/05/03 09:03:22;;;;;;;1.00;1.00;;;16.20;65.90;;;;;;5083991;28;20206;-35
2022/05/03 09:05:49;;;;;;;1.10;1.10;;;16.20;66.00;;;;;;5083149;28;20204;-33
2022/05/03 09:08:23;;;;;;;1.83;1.40;;;16.20;66.20;;;;;;5085613;28;20204;-33
2022/05/03 09:10:50;;;;;;;7.40;1.20;;;16.20;66.70;;;;;;5085582;28;20284;-34
2022/05/03 09:13:20;;;;;;;1.00;1.00;;;16.10;67.10;;;;;;5088839;28;20200;-34
2022/05/03 09:15:50;;;;;;;0.90;0.90;;;16.10;67.50;;;;;;5087561;28;20199;-35
2022/05/03 09:18:24;;;;;;;1.40;1.30;;;16.10;68.00;;;;;;5087771;28;20281;-33
2022/05/03 09:23:48;;;;;;;1.07;1.07;;;16.10;69.60;;;;;;5084657;28;20312;-34
2022/05/03 09:26:17;;;;;;;1.20;1.10;;;16.10;69.90;;;;;;5084550;28;20290;-34
2022/05/03 09:28:49;;;;;;;1.27;1.20;;;16.00;70.20;;;;;;5083039;28;20196;-33
2022/05/03 09:31:28;;;;;;;2.20;1.37;;;16.00;70.60;;;;;;5087101;28;20287;-33
2022/05/03 09:33:57;;;;;;;1.00;1.00;;;16.00;70.80;;;;;;5070474;28;20212;-34
2022/05/03 09:36:25;;;;;;;1.10;1.10;;;16.00;70.70;;;;;;5088223;28;20188;-35
2022/05/03 09:38:55;;;;;;;0.83;0.83;;;16.10;70.70;;;;;;5090643;28;20233;-34
2022/05/03 09:41:23;;;;;;;0.87;0.83;;;16.20;70.60;;;;;;5089273;28;20199;-34
2022/05/03 09:44:07;;;;;;;0.87;0.87;;;16.20;70.50;;;;;;5100422;28;20757;-33
2022/05/03 09:46:53;;;;;;;0.80;0.80;;;16.40;70.60;;;;;;5074271;28;20200;-34
2022/05/03 09:49:35;;;;;;;0.80;0.80;;;16.50;70.40;;;;;;5083278;28;20189;-35
2022/05/03 09:52:03;;;;;;;1.00;1.00;;;16.70;70.20;;;;;;5084237;28;20200;-35
2022/05/03 09:54:46;;;;;;;1.17;1.03;;;16.90;70.30;;;;;;5085475;28;20188;-34
2022/05/03 09:57:21;;;;;;;1.20;1.10;;;17.00;69.90;;;;;;5081815;28;20243;-33
2022/05/03 09:59:49;;;;;;;1.93;1.13;;;17.10;69.60;;;;;;5084700;28;20208;-33
2022/05/03 10:02:18;;;;;;;0.70;0.70;;;17.30;69.50;;;;;;5079886;28;20215;-33
2022/05/03 10:04:47;;;;;;;2.73;2.03;;;17.30;69.10;;;;;;5086388;28;20208;-34
2022/05/03 10:07:15;;;;;;;2.20;2.00;;;17.30;69.00;;;;;;5094239;28;20205;-33
2022/05/03 10:09:44;;;;;;;1.50;1.40;;;17.20;68.70;;;;;;5083370;28;20197;-34
2022/05/03 10:12:13;;;;;;;1.47;1.37;;;17.10;68.80;;;;;;5083247;28;20287;-34
2022/05/03 10:14:41;;;;;;;1.43;1.33;;;17.10;69.10;;;;;;5083691;28;20279;-34
2022/05/03 10:22:58;;;;;;;1.27;1.23;;;17.00;69.50;;;;;;5006040;28;20213;-33
2022/05/03 10:25:49;;;;;;;0.90;0.90;;;17.00;69.60;;;;;;5005482;28;20567;-34
2022/05/03 10:28:17;;;;;;;1.20;1.20;;;17.00;69.60;;;;;;5045331;28;20201;-32
2022/05/03 10:31:08;;;;;;;3.10;1.97;;;17.00;70.50;;;;;;5074927;28;20684;-33
2022/05/03 10:33:40;;;;;;;1.90;1.80;;;17.00;69.60;;;;;;5078800;28;20313;-33
2022/05/03 10:36:43;;;;;;;1.80;1.70;;;16.90;68.70;;;;;;5085289;28;20228;-33
2022/05/03 10:39:24;;;;;;;1.40;1.30;;;16.80;68.60;;;;;;5086790;28;20738;-33
2022/05/03 10:41:56;;;;;;;1.80;1.70;;;16.70;68.70;;;;;;5092359;28;20192;-33
2022/05/03 10:44:47;;;;;;;1.60;1.50;;;16.60;69.00;;;;;;5088761;28;21106;-34
2022/05/03 10:47:21;;;;;;;1.33;1.30;;;16.50;69.10;;;;;;5105177;28;20655;-33
2022/05/03 10:50:19;;;;;;;1.70;1.60;;;16.50;69.30;;;;;;5090128;28;20532;-33
2022/05/03 10:53:18;;;;;;;2.33;2.10;;;16.50;69.40;;;;;;5087862;28;20195;-33
2022/05/03 10:56:18;;;;;;;2.53;2.20;;;16.40;69.70;;;;;;5091520;28;20199;-33
2022/05/03 10:59:05;;;;;;;2.00;1.73;;;16.30;70.20;;;;;;5087347;28;20757;-33
2022/05/03 11:01:33;;;;;;;1.47;1.40;;;16.30;70.30;;;;;;5089249;28;20283;-33
2022/05/03 11:04:11;;;;;;;1.60;1.50;;;16.30;70.30;;;;;;5091666;28;20598;-33
2022/05/03 11:06:43;;;;;;;1.80;1.70;;;16.30;70.40;;;;;;5089242;28;20207;-34
2022/05/03 11:09:15;;;;;;;2.10;1.90;;;16.40;70.70;;;;;;5091370;28;20204;-33
2022/05/03 11:12:00;;;;;;;2.33;2.13;;;16.40;70.90;;;;;;5092216;28;20261;-33
2022/05/03 11:14:51;;;;;;;1.97;1.87;;;16.40;71.20;;;;;;5091141;28;20218;-33
2022/05/03 11:17:19;;;;;;;1.73;1.63;;;16.50;71.30;;;;;;5087715;28;20196;-32
2022/05/03 11:19:55;;;;;;;1.80;1.70;;;16.40;71.30;;;;;;5087920;28;20673;-33
2022/05/03 11:22:25;;;;;;;1.93;1.83;;;16.40;71.60;;;;;;5092308;28;20494;-33
2022/05/03 11:24:55;;;;;;;1.27;1.27;;;16.30;71.60;;;;;;5086115;28;20209;-33
2022/05/03 11:27:23;;;;;;;1.50;1.43;;;16.30;71.70;;;;;;5085753;28;20262;-33
2022/05/03 11:29:56;;;;;;;1.07;1.07;;;16.30;72.60;;;;;;5077904;28;20725;-33
2022/05/03 11:32:33;;;;;;;1.10;1.10;;;16.30;72.00;;;;;;5090265;28;20208;-34
2022/05/03 11:35:01;;;;;;;1.10;1.10;;;16.30;72.10;;;;;;5087072;28;20689;-33
2022/05/03 11:37:28;;;;;;;1.20;1.20;;;16.40;72.30;;;;;;5090297;28;20306;-33
2022/05/03 11:40:07;;;;;;;1.80;1.70;;;16.40;72.40;;;;;;5090615;28;20204;-33
2022/05/03 11:42:42;;;;;;;1.60;1.50;;;16.40;73.20;;;;;;5087366;28;20201;-33
2022/05/03 11:45:11;;;;;;;1.23;1.17;;;16.40;73.40;;;;;;5089074;28;20219;-33
2022/05/03 11:47:41;;;;;;;1.10;1.10;;;16.40;73.40;;;;;;5089123;28;20285;-33
2022/05/03 11:50:10;;;;;;;1.00;1.00;;;16.40;73.40;;;;;;5078954;28;20304;-33
2022/05/03 11:58:05;;;;;;;0.87;0.87;;;16.60;73.20;;;;;;5085933;28;20806;-33
2022/05/03 12:00:45;;;;;;;0.97;0.90;;;16.70;73.20;;;;;;5083532;28;20573;-34
2022/05/03 12:03:13;;;;;;;1.70;1.60;;;16.70;73.10;;;;;;5106284;28;20200;-33
2022/05/03 12:05:41;;;;;;;1.60;1.30;;;16.70;73.40;;;;;;5087263;28;20205;-33
2022/05/03 12:08:20;;;;;;;1.30;1.30;;;16.70;73.40;;;;;;5086553;28;20201;-33
2022/05/03 12:10:51;;;;;;;1.50;1.40;;;16.80;73.40;;;;;;5090168;28;20184;-33
2022/05/03 12:13:27;;;;;;;2.00;1.60;;;16.90;73.30;;;;;;5106087;28;20211;-34
2022/05/03 12:16:07;;;;;;;1.00;1.00;;;17.10;73.40;;;;;;5090253;28;20188;-34
2022/05/03 12:18:36;;;;;;;1.13;1.10;;;17.20;73.10;;;;;;5080942;28;20636;-33
2022/05/03 12:21:05;;;;;;;1.20;1.20;;;17.40;72.60;;;;;;5076382;28;20584;-34
2022/05/03 12:23:40;;;;;;;1.00;1.00;;;17.40;72.10;;;;;;5081668;28;20193;-34
2022/05/03 12:26:22;;;;;;;1.30;1.00;;;17.40;71.90;;;;;;5079099;28;20296;-32
2022/05/03 12:28:51;;;;;;;0.60;0.60;;;17.40;71.80;;;;;;5079723;28;20748;-33
2022/05/03 12:31:21;;;;;;;0.77;0.77;;;17.30;71.60;;;;;;5084157;28;20233;-34
2022/05/03 12:33:52;;;;;;;0.97;0.97;;;17.20;71.40;;;;;;5081551;28;20249;-34
2022/05/03 12:36:30;;;;;;;1.53;1.10;;;17.20;71.50;;;;;;5092539;28;20296;-33
2022/05/03 12:38:58;;;;;;;1.20;1.10;;;17.20;71.50;;;;;;5083387;28;20667;-33
2022/05/03 12:41:29;;;;;;;0.90;0.90;;;17.10;71.30;;;;;;5084134;28;20617;-34
2022/05/03 12:44:04;;;;;;;1.10;1.00;;;17.10;71.30;;;;;;5087143;28;20188;-34
2022/05/03 12:46:33;;;;;;;1.10;1.10;;;17.10;71.20;;;;;;5094278;28;20300;-34
2022/05/03 12:49:03;;;;;;;1.20;1.20;;;17.10;71.20;;;;;;5082668;28;20206;-34
2022/05/03 12:51:31;;;;;;;1.90;1.80;;;17.10;71.40;;;;;;5082985;28;20279;-34
2022/05/03 12:54:01;;;;;;;2.30;2.00;;;17.00;71.70;;;;;;5088080;28;20196;-35
2022/05/03 12:59:15;;;;;;;4.53;3.40;;;17.00;72.60;;;;;;5079435;28;20556;-33
2022/05/03 13:01:42;;;;;;;3.20;2.60;;;16.90;73.40;;;;;;5092339;28;20538;-33
2022/05/03 13:04:12;;;;;;;7.40;4.30;;;16.80;73.70;;;;;;5084884;28;20209;-36
2022/05/03 13:06:40;;;;;;;3.70;3.40;;;16.70;74.40;;;;;;5084094;28;20737;-34
2022/05/03 13:09:07;;;;;;;3.50;3.20;;;16.70;75.10;;;;;;5082797;28;20190;-34
2022/05/03 13:11:37;;;;;;;3.13;2.87;;;16.50;75.60;;;;;;5077909;28;20508;-34
2022/05/03 13:14:05;;;;;;;3.70;3.10;;;16.40;76.00;;;;;;5094455;28;20215;-32
2022/05/03 13:16:33;;;;;;;4.33;3.93;;;16.40;76.70;;;;;;5087189;28;20189;-33
2022/05/03 13:19:00;;;;;;;5.73;4.13;;;16.30;77.50;;;;;;5094867;28;20237;-34
2022/05/03 13:21:27;;;;;;;3.17;2.97;;;16.20;77.70;;;;;;5079208;28;20649;-34
2022/05/03 13:23:54;;;;;;;3.90;2.70;;;16.10;77.70;;;;;;5088171;28;20254;-34
2022/05/03 13:26:22;;;;;;;2.47;2.27;;;16.00;77.60;;;;;;5087219;28;20660;-33
2022/05/03 13:28:53;;;;;;;2.47;2.27;;;16.00;77.70;;;;;;5082571;28;20286;-33
2022/05/03 13:31:20;;;;;;;3.73;2.50;;;15.90;77.70;;;;;;5085335;28;21023;-34
2022/05/03 13:33:47;;;;;;;3.30;2.80;;;15.90;77.80;;;;;;5069786;28;20212;-33
2022/05/03 13:41:44;;;;;;;3.27;2.97;;;15.80;77.90;;;;;;5088501;28;20636;-33
2022/05/03 13:44:13;;;;;;;5.90;4.20;;;15.80;77.80;;;;;;5088137;28;20197;-33
2022/05/03 13:46:40;;;;;;;4.53;3.63;;;15.80;77.90;;;;;;5086927;28;20211;-34
2022/05/03 13:49:07;;;;;;;4.03;2.90;;;15.80;77.90;;;;;;5082599;28;20552;-34
2022/05/03 13:51:35;;;;;;;2.50;2.30;;;15.80;77.90;;;;;;5082120;28;20313;-33
2022/05/03 13:54:02;;;;;;;4.67;3.10;;;15.80;77.80;;;;;;5086380;28;20238;-34